Time;durP1;ratioP1;P1;durP2;ratioP2;P2;SDS_P1;SDS_P2;PMS_P1;PMS_P2;Temp;Humidity;BMP_temperature;BMP_pressure;BME280_temperature;BME280_humidity;BME280_pressure;Samples;Min_cycle;Max_cycle;Signal;HPM_P1;HPM_P2
2022/12/06 05:01:01;;;;;;;1999.90;999.90;;;4.40;99.90;;;;;;5721016;22;20070;-78
2022/12/06 05:03:27;;;;;;;1999.90;999.90;;;4.40;99.90;;;;;;4981002;28;20489;-76
2022/12/06 05:05:53;;;;;;;1999.90;999.90;;;4.40;99.90;;;;;;4981339;28;20023;-76
2022/12/06 05:08:18;;;;;;;1999.90;999.90;;;4.40;99.90;;;;;;4982340;28;20058;-78
2022/12/06 05:10:48;;;;;;;1999.90;999.90;;;4.40;99.90;;;;;;4976971;28;20046;-77
2022/12/06 05:13:15;;;;;;;1999.90;999.90;;;4.40;99.90;;;;;;5003730;22;20130;-74
2022/12/06 05:15:52;;;;;;;1999.90;999.90;;;4.40;99.90;;;;;;4993221;28;20106;-73
2022/12/06 05:18:18;;;;;;;1999.90;999.90;;;4.40;99.90;;;;;;4994457;28;20038;-72
2022/12/06 05:20:44;;;;;;;1999.90;999.90;;;4.40;99.90;;;;;;4994371;28;20397;-72
2022/12/06 05:23:09;;;;;;;1999.90;999.90;;;4.50;99.90;;;;;;4994455;28;20065;-72
2022/12/06 05:25:35;;;;;;;1999.90;999.90;;;4.40;99.90;;;;;;4994607;28;20071;-72
2022/12/06 05:28:00;;;;;;;1999.90;999.90;;;4.50;99.90;;;;;;4994370;28;20065;-72
2022/12/06 05:30:26;;;;;;;1999.90;999.90;;;4.40;99.90;;;;;;4994103;28;20070;-72
2022/12/06 05:32:51;;;;;;;1999.90;999.90;;;4.40;99.90;;;;;;4994217;28;20078;-73
2022/12/06 05:35:17;;;;;;;1999.90;999.90;;;4.40;99.90;;;;;;4994513;28;20571;-73
2022/12/06 05:37:43;;;;;;;1999.90;999.90;;;4.50;99.90;;;;;;4994276;28;20043;-73
2022/12/06 05:40:09;;;;;;;1999.90;999.90;;;4.50;99.90;;;;;;4994329;28;20043;-74
2022/12/06 05:42:36;;;;;;;1999.90;999.90;;;4.40;99.90;;;;;;4994573;28;20031;-74
2022/12/06 05:45:02;;;;;;;1999.90;999.90;;;4.40;99.90;;;;;;4993105;28;20043;-74
2022/12/06 05:47:28;;;;;;;1999.90;999.90;;;4.40;99.90;;;;;;4994426;28;20054;-74
2022/12/06 05:49:53;;;;;;;1999.90;999.90;;;4.40;99.90;;;;;;4994073;28;20117;-74
2022/12/06 05:52:19;;;;;;;1999.90;999.90;;;4.40;99.90;;;;;;4994240;28;20072;-73
2022/12/06 05:54:44;;;;;;;1999.90;999.90;;;4.40;99.90;;;;;;4994111;28;20067;-73
2022/12/06 05:57:10;;;;;;;1999.90;999.90;;;4.40;99.90;;;;;;4994283;28;20067;-73
2022/12/06 05:59:35;;;;;;;1999.90;999.90;;;4.40;99.90;;;;;;4994211;28;20038;-73
2022/12/06 06:02:01;;;;;;;1999.90;999.90;;;4.40;99.90;;;;;;4994085;28;20176;-73
2022/12/06 06:04:26;;;;;;;1999.90;999.90;;;4.40;99.90;;;;;;4993980;28;20117;-73
2022/12/06 06:06:52;;;;;;;1999.90;999.90;;;4.40;99.90;;;;;;4994100;28;20416;-73
2022/12/06 06:09:18;;;;;;;1999.90;999.90;;;4.40;99.90;;;;;;4993875;28;20101;-73
2022/12/06 06:11:43;;;;;;;1999.90;999.90;;;4.40;99.90;;;;;;4993906;28;20031;-73
2022/12/06 06:14:09;;;;;;;1999.90;999.90;;;4.40;99.90;;;;;;4994503;28;20525;-73
2022/12/06 06:16:34;;;;;;;1999.90;999.90;;;4.40;99.90;;;;;;4997596;28;20081;-73
2022/12/06 06:19:02;;;;;;;1999.90;999.90;;;4.40;99.90;;;;;;4997321;28;20066;-73
2022/12/06 06:21:28;;;;;;;1999.90;999.90;;;4.40;99.90;;;;;;4995336;28;20035;-73
2022/12/06 06:23:57;;;;;;;1999.90;999.90;;;4.40;99.90;;;;;;4996851;28;20043;-74
2022/12/06 06:26:22;;;;;;;1999.90;999.90;;;4.40;99.90;;;;;;4997180;28;20039;-74
2022/12/06 06:28:48;;;;;;;1999.90;999.90;;;4.40;99.90;;;;;;4997241;28;20428;-74
2022/12/06 06:31:14;;;;;;;1999.90;999.90;;;4.40;99.90;;;;;;4996584;28;20037;-74
2022/12/06 06:33:40;;;;;;;1999.90;999.90;;;4.40;99.90;;;;;;4996941;28;20031;-74
2022/12/06 06:36:06;;;;;;;1999.90;999.90;;;4.40;99.90;;;;;;4996656;28;20389;-74
2022/12/06 06:38:31;;;;;;;1999.90;999.90;;;4.40;99.90;;;;;;4996731;28;20038;-74
2022/12/06 06:41:01;;;;;;;1999.90;999.90;;;4.40;99.90;;;;;;4995211;28;20041;-74
2022/12/06 06:43:26;;;;;;;1999.90;999.90;;;4.40;99.90;;;;;;4995094;28;20043;-74
2022/12/06 06:45:54;;;;;;;1999.90;999.90;;;4.40;99.90;;;;;;4996943;28;20031;-73
2022/12/06 06:48:20;;;;;;;1999.90;999.90;;;4.40;99.90;;;;;;4995280;28;20562;-73
2022/12/06 06:50:46;;;;;;;1999.90;999.90;;;4.40;99.90;;;;;;4996291;28;20041;-73
2022/12/06 06:53:12;;;;;;;1999.90;999.90;;;4.30;99.90;;;;;;4996819;28;20468;-74
2022/12/06 06:55:38;;;;;;;1999.90;999.90;;;4.30;99.90;;;;;;4995235;28;20485;-73
2022/12/06 06:58:04;;;;;;;1999.90;999.90;;;4.30;99.90;;;;;;4997014;28;20094;-74
2022/12/06 07:00:31;;;;;;;1999.90;999.90;;;4.30;99.90;;;;;;4989583;28;20089;-74
2022/12/06 07:02:57;;;;;;;1999.90;999.90;;;4.40;99.90;;;;;;4993757;28;20105;-74
2022/12/06 07:05:23;;;;;;;1999.90;999.90;;;4.40;99.90;;;;;;4996328;28;20027;-73
2022/12/06 07:07:48;;;;;;;1999.90;999.90;;;4.30;99.90;;;;;;4996831;28;20050;-75
2022/12/06 07:10:15;;;;;;;1999.90;999.90;;;4.40;99.90;;;;;;4996491;28;20039;-75
2022/12/06 07:12:40;;;;;;;1999.90;999.90;;;4.30;99.90;;;;;;4996196;28;20122;-75
2022/12/06 07:15:06;;;;;;;1999.90;999.90;;;4.40;99.90;;;;;;4996088;28;20543;-74
2022/12/06 07:17:32;;;;;;;1999.90;999.90;;;4.30;99.90;;;;;;4996129;28;20038;-74
2022/12/06 07:19:57;;;;;;;1999.90;999.90;;;4.30;99.90;;;;;;4994442;28;20061;-74
2022/12/06 07:22:23;;;;;;;1999.90;999.90;;;4.30;99.90;;;;;;4996272;28;20070;-75
2022/12/06 07:24:49;;;;;;;1999.90;999.90;;;4.40;99.90;;;;;;4995811;28;20054;-75
2022/12/06 07:27:14;;;;;;;1999.90;999.90;;;4.40;99.90;;;;;;4996219;28;20477;-74
2022/12/06 07:29:40;;;;;;;1999.90;999.90;;;4.40;99.90;;;;;;4996201;28;20038;-74
2022/12/06 07:32:05;;;;;;;1999.90;999.90;;;4.40;99.90;;;;;;4994585;28;20452;-75
2022/12/06 07:34:32;;;;;;;1999.90;999.90;;;4.40;99.90;;;;;;4995707;28;20038;-74
2022/12/06 07:36:57;;;;;;;1999.90;999.90;;;4.40;99.90;;;;;;4996237;28;20469;-75
2022/12/06 07:39:23;;;;;;;1999.90;999.90;;;4.40;99.90;;;;;;4996238;28;20042;-75
2022/12/06 07:47:17;;;;;;;1999.90;999.90;;;4.50;99.90;;;;;;4996240;28;20093;-74
2022/12/06 07:49:42;;;;;;;1999.90;999.90;;;4.40;99.90;;;;;;4994289;28;20042;-75
2022/12/06 07:52:08;;;;;;;1999.90;999.90;;;4.40;99.90;;;;;;4995877;28;20403;-75
2022/12/06 07:54:33;;;;;;;1999.90;999.90;;;4.40;99.90;;;;;;4995878;28;20035;-75
2022/12/06 07:56:59;;;;;;;1999.90;999.90;;;4.40;99.90;;;;;;4995870;28;20039;-75
2022/12/06 07:59:25;;;;;;;1999.90;999.90;;;4.40;99.90;;;;;;4995653;28;20035;-73
2022/12/06 08:01:51;;;;;;;1999.90;999.90;;;4.30;99.90;;;;;;4995439;28;20030;-75
2022/12/06 08:04:17;;;;;;;1999.90;999.90;;;4.40;99.90;;;;;;4994129;28;20035;-75
2022/12/06 08:06:42;;;;;;;1999.90;999.90;;;4.30;99.90;;;;;;4995783;28;20500;-75
2022/12/06 08:09:08;;;;;;;1999.90;999.90;;;4.30;99.90;;;;;;4995489;28;20534;-75
2022/12/06 08:11:34;;;;;;;1999.90;999.90;;;4.40;99.90;;;;;;4993846;28;20043;-75
2022/12/06 08:14:00;;;;;;;1999.90;999.90;;;4.30;99.90;;;;;;4995018;28;20074;-75
2022/12/06 08:16:26;;;;;;;1999.90;999.90;;;4.30;99.90;;;;;;4995529;28;20089;-74
2022/12/06 08:18:51;;;;;;;1999.90;999.90;;;4.30;99.90;;;;;;4994054;28;20074;-75
2022/12/06 08:21:17;;;;;;;1999.90;999.90;;;4.30;99.90;;;;;;4995230;28;20039;-75
2022/12/06 08:23:43;;;;;;;1999.90;999.90;;;4.40;99.90;;;;;;4995518;28;20073;-75
2022/12/06 08:26:12;;;;;;;1999.90;999.90;;;4.40;99.90;;;;;;4995132;28;20058;-75
2022/12/06 08:28:38;;;;;;;1999.90;999.90;;;4.40;99.90;;;;;;4994885;28;20045;-75
2022/12/06 08:31:10;;;;;;;1999.90;999.90;;;4.40;99.90;;;;;;4995117;28;20121;-81
2022/12/06 08:33:36;;;;;;;1999.90;999.90;;;4.40;99.90;;;;;;4993730;28;20563;-76
2022/12/06 08:36:07;;;;;;;1999.90;999.90;;;4.40;99.90;;;;;;4995242;28;20485;-77
2022/12/06 08:38:34;;;;;;;1999.90;999.90;;;4.40;99.90;;;;;;4995360;28;20495;-77
2022/12/06 08:40:59;;;;;;;1999.90;999.90;;;4.40;99.90;;;;;;4994939;28;20027;-77
2022/12/06 08:43:25;;;;;;;1999.90;999.90;;;4.40;99.90;;;;;;4994593;28;20051;-76
2022/12/06 08:45:51;;;;;;;1999.90;999.90;;;4.40;99.90;;;;;;4995675;28;20105;-79
2022/12/06 08:48:17;;;;;;;1999.90;999.90;;;4.40;99.90;;;;;;4993801;28;20039;-76
2022/12/06 08:50:42;;;;;;;1999.90;999.90;;;4.40;99.90;;;;;;4995141;28;20035;-79
2022/12/06 08:53:08;;;;;;;1999.90;999.90;;;4.40;99.90;;;;;;4993955;28;20038;-81
2022/12/06 08:55:33;;;;;;;1999.90;999.90;;;4.40;99.90;;;;;;4993601;28;20059;-74
2022/12/06 08:57:59;;;;;;;1999.90;999.90;;;4.40;99.90;;;;;;4994490;28;20031;-74
2022/12/06 09:00:24;;;;;;;1999.90;999.90;;;4.40;99.90;;;;;;4994987;28;20038;-76
2022/12/06 09:02:50;;;;;;;1999.90;999.90;;;4.30;99.90;;;;;;4994915;28;20038;-77
2022/12/06 09:05:15;;;;;;;1999.90;999.90;;;4.30;99.90;;;;;;4995040;28;20042;-78
2022/12/06 09:07:41;;;;;;;1999.90;999.90;;;4.30;99.90;;;;;;4995168;28;20531;-77
2022/12/06 09:10:07;;;;;;;1999.90;999.90;;;4.30;99.90;;;;;;4994872;28;20049;-77
2022/12/06 09:12:34;;;;;;;1999.90;999.90;;;4.40;99.90;;;;;;4995191;28;20471;-81
2022/12/06 09:14:59;;;;;;;1999.90;999.90;;;4.30;99.90;;;;;;4994814;28;20089;-77
2022/12/06 09:17:25;;;;;;;1999.90;999.90;;;4.30;99.90;;;;;;4995454;28;20426;-80
2022/12/06 09:19:50;;;;;;;1999.90;999.90;;;4.30;99.90;;;;;;4995390;28;20141;-79
2022/12/06 09:22:16;;;;;;;1999.90;999.90;;;4.30;99.90;;;;;;4995590;28;20527;-80
2022/12/06 09:24:41;;;;;;;1999.90;999.90;;;4.30;99.90;;;;;;4997363;28;20034;-81
2022/12/06 09:27:07;;;;;;;1999.90;999.90;;;4.30;99.90;;;;;;4996078;28;20063;-78
2022/12/06 09:29:34;;;;;;;1999.90;999.90;;;4.30;99.90;;;;;;4975373;28;20043;-77
2022/12/06 09:32:00;;;;;;;1999.90;999.90;;;4.40;99.90;;;;;;4973900;28;20501;-78
2022/12/06 09:34:25;;;;;;;1999.90;999.90;;;4.40;99.90;;;;;;4975229;28;20043;-79
2022/12/06 09:37:03;;;;;;;1999.90;999.90;;;4.50;99.90;;;;;;4974364;28;20032;-78
2022/12/06 09:39:36;;;;;;;1999.90;999.90;;;4.60;99.90;;;;;;4973746;28;20077;-78
2022/12/06 09:42:23;;;;;;;1999.90;999.90;;;4.60;99.90;;;;;;4975456;28;20540;-78
2022/12/06 09:45:04;;;;;;;1999.90;999.90;;;4.70;99.90;;;;;;4975531;28;20043;-78
2022/12/06 09:48:24;;;;;;;1999.90;999.90;;;4.60;99.90;;;;;;4975729;28;20039;-79
2022/12/06 09:51:15;;;;;;;1999.90;999.90;;;4.70;99.90;;;;;;4921441;29;20056;-78
2022/12/06 09:53:56;;;;;;;1999.90;999.90;;;4.70;99.90;;;;;;4921206;29;20040;-81
2022/12/06 09:56:31;;;;;;;1999.90;999.90;;;4.80;99.90;;;;;;4968486;28;20093;-79
2022/12/06 09:59:42;;;;;;;1999.90;999.90;;;4.90;99.90;;;;;;4977488;28;20043;-81
2022/12/06 10:02:21;;;;;;;1999.90;999.90;;;4.90;99.90;;;;;;4970254;28;20593;-81
2022/12/06 10:05:25;;;;;;;1999.90;999.90;;;4.90;99.90;;;;;;4978632;28;20035;-80
2022/12/06 10:08:02;;;;;;;1999.90;999.90;;;4.90;99.90;;;;;;4978415;28;20051;-81
2022/12/06 10:10:39;;;;;;;1999.90;999.90;;;4.90;99.90;;;;;;4979095;28;20039;-82
2022/12/06 10:13:21;;;;;;;1999.90;999.90;;;4.90;99.90;;;;;;4977572;28;20043;-80
2022/12/06 10:16:09;;;;;;;1999.90;999.90;;;4.90;99.90;;;;;;4979546;28;20472;-81
2022/12/06 10:18:48;;;;;;;1999.90;999.90;;;4.80;99.90;;;;;;4978208;28;20039;-80
2022/12/06 10:21:20;;;;;;;1999.90;999.90;;;4.70;99.90;;;;;;4977968;28;20058;-80
2022/12/06 10:24:15;;;;;;;1999.90;999.90;;;4.70;99.90;;;;;;4976803;28;20035;-81
2022/12/06 10:26:52;;;;;;;1999.90;999.90;;;4.60;99.90;;;;;;4976800;28;20039;-80
2022/12/06 10:29:31;;;;;;;1999.90;999.90;;;4.60;99.90;;;;;;4978033;28;20039;-80
2022/12/06 10:32:11;;;;;;;1999.90;999.90;;;4.60;99.90;;;;;;4976727;28;20038;-80
2022/12/06 10:34:49;;;;;;;1999.90;999.90;;;4.50;99.90;;;;;;4976724;28;20047;-79
2022/12/06 10:37:22;;;;;;;1999.90;999.90;;;4.40;99.90;;;;;;4976344;28;20031;-82
2022/12/06 10:39:52;;;;;;;1999.90;999.90;;;4.40;99.90;;;;;;4976566;28;20047;-82
2022/12/06 10:42:36;;;;;;;1999.90;999.90;;;4.50;99.90;;;;;;4977210;28;20031;-83
2022/12/06 10:48:15;;;;;;;1999.90;999.90;;;4.50;99.90;;;;;;4979189;28;20031;-81
2022/12/06 10:50:42;;;;;;;1999.90;999.90;;;4.60;99.90;;;;;;4977271;28;20444;-81
2022/12/06 10:53:15;;;;;;;1999.90;999.90;;;4.60;99.90;;;;;;4976695;28;20038;-82
2022/12/06 10:55:52;;;;;;;1999.90;999.90;;;4.70;99.90;;;;;;4979575;28;20039;-81
2022/12/06 10:58:32;;;;;;;1999.90;999.90;;;4.70;99.90;;;;;;4978713;28;20515;-76
2022/12/06 11:00:59;;;;;;;1999.90;999.90;;;4.70;99.90;;;;;;4978271;28;20481;-78
2022/12/06 11:03:28;;;;;;;1999.90;999.90;;;4.70;99.90;;;;;;4978793;28;20473;-78
2022/12/06 11:05:59;;;;;;;1999.90;999.90;;;4.80;99.90;;;;;;4977401;28;20035;-80
2022/12/06 11:08:42;;;;;;;1999.90;999.90;;;4.80;99.90;;;;;;4978889;28;20043;-79
2022/12/06 11:11:18;;;;;;;1999.90;999.90;;;4.80;99.90;;;;;;4976390;28;20031;-80
2022/12/06 11:13:48;;;;;;;1999.90;999.90;;;4.80;99.90;;;;;;4978755;28;20066;-81
2022/12/06 11:16:27;;;;;;;1999.90;999.90;;;4.90;99.90;;;;;;4977186;28;20038;-83
2022/12/06 11:18:59;;;;;;;1999.90;999.90;;;4.90;99.90;;;;;;4975992;28;20496;-79
2022/12/06 11:21:48;;;;;;;1999.90;999.90;;;4.90;99.90;;;;;;4985434;28;20039;-80
2022/12/06 11:24:25;;;;;;;1999.90;999.90;;;5.00;99.90;;;;;;4987597;28;20031;-82
2022/12/06 11:27:14;;;;;;;1999.90;999.90;;;5.00;99.90;;;;;;4988459;28;20197;-84
2022/12/06 11:29:41;;;;;;;1999.90;999.90;;;5.10;99.90;;;;;;4980203;28;20050;-82
2022/12/06 11:32:10;;;;;;;1999.90;999.90;;;5.10;99.90;;;;;;4986142;28;20038;-79
2022/12/06 11:34:40;;;;;;;1999.90;999.90;;;5.10;99.90;;;;;;4986034;28;20071;-78
2022/12/06 11:37:08;;;;;;;1999.90;999.90;;;5.10;99.90;;;;;;4988439;28;20032;-77
2022/12/06 11:39:34;;;;;;;1999.90;999.90;;;5.20;99.90;;;;;;4992595;28;20050;-81
2022/12/06 11:42:03;;;;;;;1999.90;999.90;;;5.10;99.90;;;;;;4993113;28;20038;-81
2022/12/06 11:44:53;;;;;;;1999.90;999.90;;;5.00;99.90;;;;;;4988087;28;20041;-82
2022/12/06 11:47:20;;;;;;;1999.90;999.90;;;5.00;99.90;;;;;;4981457;28;20055;-80
2022/12/06 11:49:49;;;;;;;1999.90;999.90;;;5.00;99.90;;;;;;4986186;28;20034;-80
2022/12/06 11:52:29;;;;;;;1999.90;999.90;;;5.00;99.90;;;;;;4983513;28;20035;-80
2022/12/06 11:55:00;;;;;;;1999.90;999.90;;;5.00;99.90;;;;;;4994003;28;20130;-82
2022/12/06 11:57:33;;;;;;;1999.90;999.90;;;5.00;99.90;;;;;;4983431;28;20066;-82
2022/12/06 12:00:31;;;;;;;1999.90;999.90;;;5.00;99.90;;;;;;4978213;28;20043;-82
2022/12/06 12:02:56;;;;;;;1999.90;999.90;;;4.90;99.90;;;;;;4964831;28;20477;-81
2022/12/06 12:05:33;;;;;;;1999.90;999.90;;;5.00;99.90;;;;;;4982538;28;20045;-81
2022/12/06 12:08:06;;;;;;;1999.90;999.90;;;5.00;99.90;;;;;;4985310;28;20062;-82
2022/12/06 12:10:40;;;;;;;1999.90;999.90;;;5.00;99.90;;;;;;4995532;28;20043;-82
2022/12/06 12:16:09;;;;;;;1999.90;999.90;;;4.80;99.90;;;;;;4997055;28;20551;-79
2022/12/06 12:18:37;;;;;;;1999.90;999.90;;;4.80;99.90;;;;;;4995739;28;20076;-80
2022/12/06 12:21:05;;;;;;;1999.90;999.90;;;4.80;99.90;;;;;;4995400;28;20042;-81
2022/12/06 12:23:45;;;;;;;1999.90;999.90;;;4.80;99.90;;;;;;4995591;28;21157;-81
2022/12/06 12:26:16;;;;;;;1999.90;999.90;;;4.70;99.90;;;;;;4997238;28;20030;-81
2022/12/06 12:29:01;;;;;;;1999.90;999.90;;;4.70;99.90;;;;;;4996564;28;20417;-81
2022/12/06 12:31:27;;;;;;;1999.90;999.90;;;4.70;99.90;;;;;;4995089;28;20035;-81
2022/12/06 12:34:11;;;;;;;1999.90;999.90;;;4.70;99.90;;;;;;4995023;28;20039;-81
2022/12/06 12:36:37;;;;;;;1999.90;999.90;;;4.70;99.90;;;;;;4996321;28;20105;-80
2022/12/06 12:39:03;;;;;;;1999.90;999.90;;;4.70;99.90;;;;;;4995356;28;20130;-80
2022/12/06 12:41:36;;;;;;;1999.90;999.90;;;4.70;99.90;;;;;;4996542;28;20035;-80
2022/12/06 12:44:06;;;;;;;1999.90;999.90;;;4.60;99.90;;;;;;4994944;28;20062;-81
2022/12/06 12:46:35;;;;;;;1999.90;999.90;;;4.60;99.90;;;;;;4995315;28;20097;-80
2022/12/06 12:49:22;;;;;;;1999.90;999.90;;;4.60;99.90;;;;;;4996464;28;20038;-81
2022/12/06 12:51:47;;;;;;;1999.90;999.90;;;4.60;99.90;;;;;;4996341;28;20496;-80
2022/12/06 12:54:35;;;;;;;1999.90;999.90;;;4.60;99.90;;;;;;4996142;28;20043;-80
2022/12/06 12:57:06;;;;;;;1999.90;999.90;;;4.70;99.90;;;;;;4996334;28;20023;-82
2022/12/06 12:59:37;;;;;;;1999.90;999.90;;;4.70;99.90;;;;;;4997039;28;20113;-82
2022/12/06 13:02:19;;;;;;;1999.90;999.90;;;4.70;99.90;;;;;;4995471;28;20037;-81
2022/12/06 13:04:50;;;;;;;1999.90;999.90;;;4.60;99.90;;;;;;4997269;28;20031;-80
2022/12/06 13:07:35;;;;;;;1999.90;999.90;;;4.60;99.90;;;;;;4996433;28;20101;-79
2022/12/06 13:10:04;;;;;;;1999.90;999.90;;;4.60;99.90;;;;;;4993188;28;20047;-79
2022/12/06 13:12:42;;;;;;;1999.90;999.90;;;4.60;99.90;;;;;;4994007;28;20427;-77
2022/12/06 13:15:20;;;;;;;1999.90;999.90;;;4.60;99.90;;;;;;4994311;28;20055;-78
2022/12/06 13:17:52;;;;;;;1999.90;999.90;;;4.60;99.90;;;;;;4995478;28;20038;-78
2022/12/06 13:20:25;;;;;;;1999.90;999.90;;;4.50;99.90;;;;;;4994051;28;20456;-79
2022/12/06 13:22:54;;;;;;;1999.90;999.90;;;4.50;99.90;;;;;;4994681;28;20035;-76
2022/12/06 13:25:20;;;;;;;1999.90;999.90;;;4.40;99.90;;;;;;4990909;28;20492;-78
2022/12/06 13:27:50;;;;;;;1999.90;999.90;;;4.40;99.90;;;;;;4978365;28;20036;-82
2022/12/06 13:30:19;;;;;;;1999.90;999.90;;;4.40;99.90;;;;;;4978497;28;20081;-79
2022/12/06 13:32:51;;;;;;;1999.90;999.90;;;4.40;99.90;;;;;;4983995;28;20030;-80
2022/12/06 13:35:22;;;;;;;1999.90;999.90;;;4.40;99.90;;;;;;4998321;28;20043;-80
2022/12/06 13:38:00;;;;;;;1999.90;999.90;;;4.40;99.90;;;;;;5001038;28;20031;-83
2022/12/06 13:40:32;;;;;;;1999.90;999.90;;;4.40;99.90;;;;;;4999779;28;20035;-82
2022/12/06 13:43:25;;;;;;;1999.90;999.90;;;4.50;99.90;;;;;;4998981;28;20787;-81
2022/12/06 13:45:53;;;;;;;1999.90;999.90;;;4.50;99.90;;;;;;4994842;28;20027;-80
2022/12/06 13:48:24;;;;;;;1999.90;999.90;;;4.60;99.90;;;;;;4995021;28;21177;-80
2022/12/06 13:50:57;;;;;;;1999.90;999.90;;;4.60;99.90;;;;;;4999006;28;20050;-78
2022/12/06 13:53:30;;;;;;;1999.90;999.90;;;4.60;99.90;;;;;;4998723;28;20045;-80
2022/12/06 13:56:02;;;;;;;1999.90;999.90;;;4.60;99.90;;;;;;5000080;28;20114;-82
2022/12/06 13:58:28;;;;;;;1999.90;999.90;;;4.60;99.90;;;;;;4995172;28;20054;-80
2022/12/06 14:00:55;;;;;;;1999.90;999.90;;;4.60;99.90;;;;;;4999715;28;20126;-80
2022/12/06 14:03:22;;;;;;;1999.90;999.90;;;4.60;99.90;;;;;;5000299;28;20042;-82
2022/12/06 14:05:59;;;;;;;1999.90;999.90;;;4.60;99.90;;;;;;5000762;28;20031;-81
2022/12/06 14:08:50;;;;;;;1999.90;999.90;;;4.60;99.90;;;;;;4999656;28;20042;-80
2022/12/06 14:11:20;;;;;;;1999.90;999.90;;;4.50;99.90;;;;;;5000420;28;20807;-78
2022/12/06 14:14:13;;;;;;;1999.90;999.90;;;4.50;99.90;;;;;;4998909;28;20039;-77
2022/12/06 14:16:58;;;;;;;1999.90;999.90;;;4.50;99.90;;;;;;4992132;28;20091;-82
2022/12/06 14:20:00;;;;;;;1999.90;999.90;;;4.50;99.90;;;;;;4985516;28;20054;-82
2022/12/06 14:22:29;;;;;;;1999.90;999.90;;;4.50;99.90;;;;;;4953424;28;20031;-81
2022/12/06 14:25:01;;;;;;;1999.90;999.90;;;4.40;99.90;;;;;;4976370;28;20764;-81
2022/12/06 14:27:41;;;;;;;1999.90;999.90;;;4.50;99.90;;;;;;4988326;28;20031;-86
2022/12/06 14:30:13;;;;;;;1999.90;999.90;;;4.50;99.90;;;;;;4986017;28;20046;-82
2022/12/06 14:32:47;;;;;;;1999.90;999.90;;;4.50;99.90;;;;;;4977254;28;20023;-83
2022/12/06 14:35:21;;;;;;;1999.90;999.90;;;4.40;99.90;;;;;;4994516;28;20042;-85
2022/12/06 14:37:46;;;;;;;1999.90;999.90;;;4.50;99.90;;;;;;4988732;28;20163;-79
2022/12/06 14:43:23;;;;;;;1999.90;999.90;;;4.50;99.90;;;;;;4994208;28;20535;-80
2022/12/06 14:45:49;;;;;;;1999.90;999.90;;;4.50;99.90;;;;;;4997513;28;20515;-81
2022/12/06 14:48:16;;;;;;;1999.90;999.90;;;4.40;99.90;;;;;;4976946;28;20032;-80
2022/12/06 14:50:48;;;;;;;1999.90;999.90;;;4.40;99.90;;;;;;4978974;28;20102;-81
2022/12/06 14:53:31;;;;;;;1999.90;999.90;;;4.50;99.90;;;;;;4978225;28;20505;-81
2022/12/06 14:55:59;;;;;;;1999.90;999.90;;;4.40;99.90;;;;;;4983164;28;20042;-82
2022/12/06 14:58:28;;;;;;;1999.90;999.90;;;4.50;99.90;;;;;;4998535;28;20497;-82
2022/12/06 15:00:59;;;;;;;1999.90;999.90;;;4.50;99.90;;;;;;4992934;28;20101;-82
2022/12/06 15:03:33;;;;;;;1999.90;999.90;;;4.50;99.90;;;;;;4977603;28;20042;-82
2022/12/06 15:06:10;;;;;;;1999.90;999.90;;;4.50;99.90;;;;;;4998245;28;20038;-86
2022/12/06 15:08:44;;;;;;;1999.90;999.90;;;4.40;99.90;;;;;;4997657;28;20516;-82
2022/12/06 15:12:53;;;;;;;1999.90;999.90;;;4.40;99.90;;;;;;4996649;28;20054;-76
2022/12/06 15:14:15;;;;;;;1999.90;999.90;;;4.40;99.90;;;;;;4997562;28;20042;-80
2022/12/06 15:16:43;;;;;;;1999.90;999.90;;;4.40;99.90;;;;;;5001467;28;20031;-84
2022/12/06 15:19:16;;;;;;;1999.90;999.90;;;4.40;99.90;;;;;;5001258;28;20063;-82
2022/12/06 15:21:41;;;;;;;1999.90;999.90;;;4.30;99.90;;;;;;4998959;28;20037;-82
2022/12/06 15:24:17;;;;;;;1999.90;999.90;;;4.30;99.90;;;;;;4997801;28;20404;-82
2022/12/06 15:26:42;;;;;;;1999.90;999.90;;;4.30;99.90;;;;;;4999738;28;20038;-82
2022/12/06 15:29:08;;;;;;;1999.90;999.90;;;4.30;99.90;;;;;;4985697;28;20043;-80
2022/12/06 15:31:34;;;;;;;1999.90;999.90;;;4.30;99.90;;;;;;4980664;28;20035;-82
2022/12/06 15:34:00;;;;;;;1999.90;999.90;;;4.30;99.90;;;;;;4980148;28;20043;-82
2022/12/06 15:36:29;;;;;;;1999.90;999.90;;;4.30;99.90;;;;;;4980209;28;20066;-80
2022/12/06 15:38:56;;;;;;;1999.90;999.90;;;4.40;99.90;;;;;;4979157;28;20548;-81
2022/12/06 15:41:24;;;;;;;1999.90;999.90;;;4.30;99.90;;;;;;4979898;28;20110;-80
2022/12/06 15:43:52;;;;;;;1999.90;999.90;;;4.30;99.90;;;;;;4978531;28;20066;-81
2022/12/06 15:46:22;;;;;;;1999.90;999.90;;;4.30;99.90;;;;;;4978937;28;20027;-81
2022/12/06 15:48:49;;;;;;;1999.90;999.90;;;4.30;99.90;;;;;;4977906;28;20108;-81
2022/12/06 15:51:16;;;;;;;1999.90;999.90;;;4.30;99.90;;;;;;4976317;28;20820;-80
2022/12/06 15:53:44;;;;;;;1999.90;999.90;;;4.30;99.90;;;;;;4976989;28;20086;-81
2022/12/06 15:56:15;;;;;;;1999.90;999.90;;;4.30;99.90;;;;;;4977650;28;20046;-81
2022/12/06 15:58:45;;;;;;;1999.90;999.90;;;4.20;99.90;;;;;;4977351;28;20031;-81
2022/12/06 16:01:33;;;;;;;1999.90;999.90;;;4.20;99.90;;;;;;4978209;28;20063;-81
2022/12/06 16:03:59;;;;;;;1999.90;999.90;;;4.20;99.90;;;;;;4983365;28;20032;-81
2022/12/06 16:06:26;;;;;;;1999.90;999.90;;;4.20;99.90;;;;;;4981241;28;20148;-82
2022/12/06 16:08:52;;;;;;;1999.90;999.90;;;4.20;99.90;;;;;;4983184;28;20046;-81
2022/12/06 16:11:21;;;;;;;1999.90;999.90;;;4.20;99.90;;;;;;4978463;28;20031;-81
2022/12/06 16:13:47;;;;;;;1999.90;999.90;;;4.10;99.90;;;;;;4977818;28;20044;-84
2022/12/06 16:16:15;;;;;;;1999.90;999.90;;;4.10;99.90;;;;;;4977688;28;20498;-82
2022/12/06 16:18:40;;;;;;;1999.90;999.90;;;4.10;99.90;;;;;;4976967;28;20085;-83
2022/12/06 16:21:06;;;;;;;1999.90;999.90;;;4.20;99.90;;;;;;4978225;28;20089;-84
2022/12/06 16:26:16;;;;;;;1999.90;999.90;;;4.20;99.90;;;;;;4979886;28;20035;-83
2022/12/06 16:28:42;;;;;;;1999.90;999.90;;;4.20;99.90;;;;;;4977365;28;20090;-84
2022/12/06 16:31:13;;;;;;;1999.90;999.90;;;4.20;99.90;;;;;;4977027;28;20063;-83
2022/12/06 16:33:39;;;;;;;1999.90;999.90;;;4.30;99.90;;;;;;4978979;28;20039;-83
2022/12/06 16:36:16;;;;;;;1999.90;999.90;;;4.30;99.90;;;;;;4979503;28;20142;-84
2022/12/06 16:38:42;;;;;;;1999.90;999.90;;;4.30;99.90;;;;;;4978466;28;20038;-83
2022/12/06 16:41:16;;;;;;;1999.90;999.90;;;4.20;99.90;;;;;;4976583;28;20039;-83
2022/12/06 16:43:42;;;;;;;1999.90;999.90;;;4.30;99.90;;;;;;4976807;28;20039;-83
2022/12/06 16:46:37;;;;;;;1999.90;999.90;;;4.30;99.90;;;;;;4976483;28;20031;-84
2022/12/06 16:49:24;;;;;;;1999.90;999.90;;;4.30;99.90;;;;;;4963672;28;20095;-83
2022/12/06 16:51:50;;;;;;;1999.90;999.90;;;4.30;99.90;;;;;;4976382;28;20066;-84
2022/12/06 16:54:16;;;;;;;1999.90;999.90;;;4.30;99.90;;;;;;4976318;28;20040;-83
2022/12/06 16:56:42;;;;;;;1999.90;999.90;;;4.30;99.90;;;;;;4976726;28;20118;-83
2022/12/06 16:59:17;;;;;;;1999.90;999.90;;;4.30;99.90;;;;;;4975738;28;20039;-83
2022/12/06 17:01:49;;;;;;;1999.90;999.90;;;4.30;99.90;;;;;;4977949;28;20501;-83
2022/12/06 17:04:15;;;;;;;1999.90;999.90;;;4.30;99.90;;;;;;4975757;28;20066;-85
2022/12/06 17:06:40;;;;;;;1999.90;999.90;;;4.30;99.90;;;;;;4976647;28;20031;-82
2022/12/06 17:09:06;;;;;;;1999.90;999.90;;;4.20;99.90;;;;;;4976526;28;20039;-83
2022/12/06 17:14:24;;;;;;;1999.90;999.90;;;4.20;99.90;;;;;;4993725;23;20055;-85
2022/12/06 17:16:49;;;;;;;1999.90;999.90;;;4.20;99.90;;;;;;4979296;28;20043;-84
2022/12/06 17:19:18;;;;;;;1999.90;999.90;;;4.20;99.90;;;;;;4979924;28;20035;-84
2022/12/06 17:21:45;;;;;;;1999.90;999.90;;;4.10;99.90;;;;;;4979574;28;20067;-84
2022/12/06 17:24:11;;;;;;;1999.90;999.90;;;4.10;99.90;;;;;;4978514;28;20497;-85
2022/12/06 17:26:37;;;;;;;1999.90;999.90;;;4.10;99.90;;;;;;4979627;28;20098;-83
2022/12/06 17:29:03;;;;;;;1999.90;999.90;;;4.10;99.90;;;;;;4979995;28;20035;-85
2022/12/06 17:31:29;;;;;;;1999.90;999.90;;;4.10;99.90;;;;;;4977584;28;20023;-83
2022/12/06 17:33:57;;;;;;;1999.90;999.90;;;4.10;99.90;;;;;;4977128;28;20062;-82
2022/12/06 17:36:24;;;;;;;1999.90;999.90;;;4.10;99.90;;;;;;4979060;28;20039;-84
2022/12/06 17:38:50;;;;;;;1999.90;999.90;;;4.10;99.90;;;;;;4977216;28;20119;-84
2022/12/06 17:44:06;;;;;;;1999.90;999.90;;;4.10;99.90;;;;;;4979682;28;20859;-81
2022/12/06 17:46:32;;;;;;;1999.90;999.90;;;4.10;99.90;;;;;;4980264;28;20035;-85
2022/12/06 17:48:58;;;;;;;1999.90;999.90;;;4.10;99.90;;;;;;4979825;28;20070;-83